<?xml version="1.0" encoding="utf-8"?>
<gpx xmlns:xsi="http://www.w3.org/2001/XMLSchema-instance" xmlns:xsd="http://www.w3.org/2001/XMLSchema" version="1.1" creator="Shapelink.com" xmlns="http://www.topografix.com/GPX/1/1" xmlns:gpxtpx="http://www.garmin.com/xmlschemas/TrackPointExtension/v1">
  <metadata>
    <name>Gåing 1.60 km, 2012-05-17</name>
    <desc></desc>
    <author><name>Mikael Blom</name></author> 
    <time>2012-05-17T15:18:05Z</time>
  </metadata>
  <trk>
    <name>Gåing 1.60 km, 2012-05-17</name>
    <trkseg>
      <trkpt lat="59.9898389" lon="17.7380988">
        <ele>53.0098</ele>
        <time>2012-05-17T15:18:05Z</time>
      </trkpt>
      <trkpt lat="59.9900524" lon="17.7383065">
        <ele>49.1646</ele>
        <time>2012-05-17T15:18:10Z</time>
      </trkpt>
      <trkpt lat="59.9900768" lon="17.7383979">
        <ele>44.358</ele>
        <time>2012-05-17T15:18:14Z</time>
      </trkpt>
      <trkpt lat="59.9902385" lon="17.7382178">
        <ele>57.8165</ele>
        <time>2012-05-17T15:18:22Z</time>
      </trkpt>
      <trkpt lat="59.9902725" lon="17.7381815">
        <ele>59.7391</ele>
        <time>2012-05-17T15:18:25Z</time>
      </trkpt>
      <trkpt lat="59.9903731" lon="17.7381417">
        <ele>58.2971</ele>
        <time>2012-05-17T15:18:31Z</time>
      </trkpt>
      <trkpt lat="59.9904298" lon="17.7380928">
        <ele>57.8165</ele>
        <time>2012-05-17T15:18:37Z</time>
      </trkpt>
      <trkpt lat="59.9905203" lon="17.7380644">
        <ele>50.6066</ele>
        <time>2012-05-17T15:18:43Z</time>
      </trkpt>
      <trkpt lat="59.9906074" lon="17.7380189">
        <ele>48.684</ele>
        <time>2012-05-17T15:18:48Z</time>
      </trkpt>
      <trkpt lat="59.9907213" lon="17.7379598">
        <ele>53.4905</ele>
        <time>2012-05-17T15:18:53Z</time>
      </trkpt>
      <trkpt lat="59.9907535" lon="17.7379008">
        <ele>53.4905</ele>
        <time>2012-05-17T15:18:57Z</time>
      </trkpt>
      <trkpt lat="59.9907307" lon="17.73785">
        <ele>50.6066</ele>
        <time>2012-05-17T15:19:02Z</time>
      </trkpt>
      <trkpt lat="59.9908511" lon="17.7377773">
        <ele>56.3745</ele>
        <time>2012-05-17T15:19:08Z</time>
      </trkpt>
      <trkpt lat="59.9909789" lon="17.7377294">
        <ele>63.5844</ele>
        <time>2012-05-17T15:19:13Z</time>
      </trkpt>
      <trkpt lat="59.9910585" lon="17.7376511">
        <ele>65.0264</ele>
        <time>2012-05-17T15:19:19Z</time>
      </trkpt>
      <trkpt lat="59.9911342" lon="17.7376041">
        <ele>62.1423</ele>
        <time>2012-05-17T15:19:25Z</time>
      </trkpt>
      <trkpt lat="59.9912399" lon="17.7376044">
        <ele>62.6229</ele>
        <time>2012-05-17T15:19:32Z</time>
      </trkpt>
      <trkpt lat="59.991288" lon="17.7376087">
        <ele>57.8165</ele>
        <time>2012-05-17T15:19:36Z</time>
      </trkpt>
      <trkpt lat="59.991384" lon="17.737633">
        <ele>57.3358</ele>
        <time>2012-05-17T15:19:41Z</time>
      </trkpt>
      <trkpt lat="59.9914922" lon="17.7376172">
        <ele>62.6229</ele>
        <time>2012-05-17T15:19:45Z</time>
      </trkpt>
      <trkpt lat="59.9916254" lon="17.7375994">
        <ele>65.9877</ele>
        <time>2012-05-17T15:19:50Z</time>
      </trkpt>
      <trkpt lat="59.9917393" lon="17.7375856">
        <ele>68.3909</ele>
        <time>2012-05-17T15:19:56Z</time>
      </trkpt>
      <trkpt lat="59.991835" lon="17.737567">
        <ele>65.9877</ele>
        <time>2012-05-17T15:20:02Z</time>
      </trkpt>
      <trkpt lat="59.9918835" lon="17.73752">
        <ele>64.0651</ele>
        <time>2012-05-17T15:20:07Z</time>
      </trkpt>
      <trkpt lat="59.991894" lon="17.7375067">
        <ele>59.2584</ele>
        <time>2012-05-17T15:20:10Z</time>
      </trkpt>
      <trkpt lat="59.9919547" lon="17.7375195">
        <ele>51.0872</ele>
        <time>2012-05-17T15:20:16Z</time>
      </trkpt>
      <trkpt lat="59.9920369" lon="17.7375007">
        <ele>52.0486</ele>
        <time>2012-05-17T15:20:20Z</time>
      </trkpt>
      <trkpt lat="59.9920845" lon="17.7374745">
        <ele>55.4131</ele>
        <time>2012-05-17T15:20:24Z</time>
      </trkpt>
      <trkpt lat="59.9921726" lon="17.7374397">
        <ele>57.8165</ele>
        <time>2012-05-17T15:20:28Z</time>
      </trkpt>
      <trkpt lat="59.9922877" lon="17.7375106">
        <ele>64.5457</ele>
        <time>2012-05-17T15:20:33Z</time>
      </trkpt>
      <trkpt lat="59.9923147" lon="17.737705">
        <ele>56.8551</ele>
        <time>2012-05-17T15:20:39Z</time>
      </trkpt>
      <trkpt lat="59.9923293" lon="17.7378945">
        <ele>53.0098</ele>
        <time>2012-05-17T15:20:45Z</time>
      </trkpt>
      <trkpt lat="59.9923318" lon="17.7379838">
        <ele>50.126</ele>
        <time>2012-05-17T15:20:48Z</time>
      </trkpt>
      <trkpt lat="59.9923297" lon="17.7381171">
        <ele>47.2418</ele>
        <time>2012-05-17T15:20:52Z</time>
      </trkpt>
      <trkpt lat="59.992394" lon="17.7383036">
        <ele>61.6617</ele>
        <time>2012-05-17T15:21:00Z</time>
      </trkpt>
      <trkpt lat="59.9924255" lon="17.7384187">
        <ele>69.8329</ele>
        <time>2012-05-17T15:21:04Z</time>
      </trkpt>
      <trkpt lat="59.9924473" lon="17.7385291">
        <ele>67.9103</ele>
        <time>2012-05-17T15:21:08Z</time>
      </trkpt>
      <trkpt lat="59.99237" lon="17.7387745">
        <ele>51.0872</ele>
        <time>2012-05-17T15:21:15Z</time>
      </trkpt>
      <trkpt lat="59.9923591" lon="17.7388715">
        <ele>47.2418</ele>
        <time>2012-05-17T15:21:18Z</time>
      </trkpt>
      <trkpt lat="59.9923551" lon="17.7390849">
        <ele>47.7225</ele>
        <time>2012-05-17T15:21:25Z</time>
      </trkpt>
      <trkpt lat="59.9924582" lon="17.7392436">
        <ele>57.8165</ele>
        <time>2012-05-17T15:21:32Z</time>
      </trkpt>
      <trkpt lat="59.9924908" lon="17.7394357">
        <ele>61.181</ele>
        <time>2012-05-17T15:21:39Z</time>
      </trkpt>
      <trkpt lat="59.9924711" lon="17.7395264">
        <ele>58.7777</ele>
        <time>2012-05-17T15:21:42Z</time>
      </trkpt>
      <trkpt lat="59.9924846" lon="17.739574">
        <ele>59.2584</ele>
        <time>2012-05-17T15:21:44Z</time>
      </trkpt>
      <trkpt lat="59.9925288" lon="17.7397221">
        <ele>64.5457</ele>
        <time>2012-05-17T15:21:50Z</time>
      </trkpt>
      <trkpt lat="59.9925047" lon="17.7399081">
        <ele>57.8165</ele>
        <time>2012-05-17T15:21:56Z</time>
      </trkpt>
      <trkpt lat="59.9925184" lon="17.739955">
        <ele>57.3358</ele>
        <time>2012-05-17T15:21:58Z</time>
      </trkpt>
      <trkpt lat="59.9925788" lon="17.7400748">
        <ele>60.7003</ele>
        <time>2012-05-17T15:22:03Z</time>
      </trkpt>
      <trkpt lat="59.9926027" lon="17.7402166">
        <ele>65.5071</ele>
        <time>2012-05-17T15:22:08Z</time>
      </trkpt>
      <trkpt lat="59.9926173" lon="17.7403855">
        <ele>66.949</ele>
        <time>2012-05-17T15:22:15Z</time>
      </trkpt>
      <trkpt lat="59.9926161" lon="17.7404115">
        <ele>66.4683</ele>
        <time>2012-05-17T15:22:16Z</time>
      </trkpt>
      <trkpt lat="59.9926173" lon="17.7405333">
        <ele>62.6229</ele>
        <time>2012-05-17T15:22:20Z</time>
      </trkpt>
    </trkseg>
  </trk>
</gpx>